Time;durP1;ratioP1;P1;durP2;ratioP2;P2;SDS_P1;SDS_P2;PMS_P1;PMS_P2;Temp;Humidity;BMP_temperature;BMP_pressure;BME280_temperature;BME280_humidity;BME280_pressure;Samples;Min_cycle;Max_cycle;Signal;HPM_P1;HPM_P2
2022/05/04 00:01:27;;;;;;;14.60;6.20;;;;;;;10.55;61.91;101910.22;5035059;28;20047;-80
2022/05/04 00:03:53;;;;;;;17.60;6.22;;;;;;;10.51;62.08;101917.84;5032959;28;20044;-80
2022/05/04 00:06:18;;;;;;;15.45;6.22;;;;;;;10.45;62.05;101913.28;5034455;28;20037;-81
2022/05/04 00:08:43;;;;;;;16.20;6.28;;;;;;;10.37;61.95;101914.66;5032554;28;20041;-81
2022/05/04 00:11:09;;;;;;;17.13;6.47;;;;;;;10.36;62.14;101920.72;5034748;28;20030;-81
2022/05/04 00:13:34;;;;;;;12.27;6.15;;;;;;;10.31;62.30;101914.38;5034332;28;20204;-81
2022/05/04 00:16:01;;;;;;;16.80;6.50;;;;;;;10.22;62.42;101909.69;5034546;28;20037;-81
2022/05/04 00:18:30;;;;;;;15.70;5.93;;;;;;;10.16;62.70;101920.72;5035275;28;20172;-81
2022/05/04 00:20:56;;;;;;;18.38;7.10;;;;;;;10.12;62.61;101915.34;5038988;28;20041;-81
2022/05/04 00:23:22;;;;;;;15.63;6.55;;;;;;;10.05;62.91;101915.06;5036193;28;20033;-81
2022/05/04 00:25:47;;;;;;;15.32;6.18;;;;;;;10.01;63.10;101922.69;5034829;28;20037;-81
2022/05/04 00:28:13;;;;;;;17.05;6.45;;;;;;;9.98;63.69;101926.06;5035613;28;20036;-80
2022/05/04 00:30:38;;;;;;;14.23;6.40;;;;;;;9.91;64.04;101921.41;5049791;28;20207;-80
2022/05/04 00:33:04;;;;;;;13.75;6.43;;;;;;;9.87;64.64;101917.75;5039330;28;20037;-81
2022/05/04 00:35:29;;;;;;;14.43;6.30;;;;;;;9.89;64.44;101921.34;5049246;28;20072;-81
2022/05/04 00:37:54;;;;;;;12.23;6.63;;;;;;;9.86;64.71;101917.69;5049395;28;20044;-80
2022/05/04 00:40:19;;;;;;;15.63;6.22;;;;;;;9.86;65.04;101918.59;5039063;28;20323;-80
2022/05/04 00:42:45;;;;;;;18.75;6.32;;;;;;;9.92;65.25;101925.75;5055279;28;20041;-80
2022/05/04 00:45:10;;;;;;;16.90;5.93;;;;;;;9.94;64.86;101923.25;5039645;28;20165;-80
2022/05/04 00:47:35;;;;;;;14.63;6.53;;;;;;;9.96;65.17;101911.19;5039774;28;20056;-80
2022/05/04 00:50:04;;;;;;;14.57;6.20;;;;;;;9.97;65.13;101912.97;5039675;28;20068;-80
2022/05/04 00:52:34;;;;;;;14.77;5.90;;;;;;;10.01;65.47;101915.75;5040203;28;20287;-80
2022/05/04 00:55:00;;;;;;;14.20;6.00;;;;;;;10.04;65.67;101907.19;5036671;28;20052;-80
2022/05/04 01:00:11;;;;;;;16.30;7.38;;;;;;;10.08;65.12;101907.38;5040364;28;20029;-79
2022/05/04 01:02:38;;;;;;;16.08;6.30;;;;;;;10.08;65.35;101907.38;5034447;28;20037;-80
2022/05/04 01:05:05;;;;;;;16.63;6.50;;;;;;;10.08;65.54;101903.91;5028791;28;20168;-80
2022/05/04 01:07:31;;;;;;;16.33;6.35;;;;;;;10.13;65.42;101909.31;5036340;28;20041;-79
2022/05/04 01:09:56;;;;;;;12.77;5.93;;;;;;;10.16;65.53;101910.31;5036400;28;20121;-80
2022/05/04 01:12:22;;;;;;;15.85;6.00;;;;;;;10.21;65.42;101903.59;5035308;28;20173;-80
2022/05/04 01:14:48;;;;;;;14.80;6.35;;;;;;;10.22;65.58;101902.75;5039159;28;20033;-80
2022/05/04 01:17:13;;;;;;;15.18;6.88;;;;;;;10.24;65.58;101910.66;5031609;28;20037;-80
2022/05/04 01:19:38;;;;;;;14.20;6.57;;;;;;;10.26;65.66;101907.25;5038628;28;20067;-79
2022/05/04 01:22:04;;;;;;;16.08;6.80;;;;;;;10.31;65.71;101909.19;5035920;28;20076;-80
2022/05/04 01:24:29;;;;;;;16.77;6.75;;;;;;;10.26;65.27;101912.47;5035618;28;20288;-80
2022/05/04 01:26:54;;;;;;;15.98;7.18;;;;;;;10.27;65.88;101914.25;5039247;28;20164;-80
2022/05/04 01:29:19;;;;;;;17.27;7.25;;;;;;;10.33;65.72;101912.75;5039425;28;20045;-79
2022/05/04 01:31:45;;;;;;;15.85;6.68;;;;;;;10.36;65.94;101910.31;5031464;28;20025;-80
2022/05/04 01:34:10;;;;;;;15.48;6.10;;;;;;;10.31;65.41;101910.09;5034799;28;20052;-80
2022/05/04 01:36:35;;;;;;;19.48;7.00;;;;;;;10.35;65.76;101904.19;5037449;28;20122;-80
2022/05/04 01:39:01;;;;;;;14.23;6.32;;;;;;;10.34;65.15;101904.13;5034705;28;20033;-80
2022/05/04 01:44:10;;;;;;;13.82;6.28;;;;;;;10.36;65.60;101902.50;5035620;28;20227;-80
2022/05/04 01:46:35;;;;;;;20.27;6.50;;;;;;;10.34;65.44;101902.44;5053711;28;20018;-80
2022/05/04 01:49:00;;;;;;;14.65;6.20;;;;;;;10.36;65.39;101899.88;5025410;28;20033;-79
2022/05/04 01:51:26;;;;;;;14.35;5.82;;;;;;;10.36;64.98;101903.38;5031675;28;20040;-80
2022/05/04 01:53:51;;;;;;;17.13;6.28;;;;;;;10.36;65.39;101905.09;5039253;28;20036;-80
2022/05/04 01:56:16;;;;;;;12.88;5.75;;;;;;;10.36;64.99;101905.09;5041766;28;20264;-79
2022/05/04 01:58:42;;;;;;;14.00;6.28;;;;;;;10.38;64.67;101903.44;5056505;28;20342;-80
2022/05/04 02:01:07;;;;;;;19.33;6.57;;;;;;;10.36;65.56;101900.75;5042154;28;20041;-80
2022/05/04 02:03:33;;;;;;;14.60;6.00;;;;;;;10.37;65.54;101899.03;5039299;28;20038;-79
2022/05/04 02:05:59;;;;;;;15.63;6.07;;;;;;;10.35;65.21;101903.31;5034168;28;20343;-80
2022/05/04 02:08:24;;;;;;;14.73;6.05;;;;;;;10.36;65.04;101897.28;5035345;28;20299;-79
2022/05/04 02:10:50;;;;;;;17.33;6.20;;;;;;;10.32;64.70;101895.34;5037114;28;20025;-80
2022/05/04 02:13:15;;;;;;;16.13;5.97;;;;;;;10.31;65.89;101898.75;5038024;28;20025;-80
2022/05/04 02:15:41;;;;;;;16.92;6.22;;;;;;;10.32;65.12;101897.94;5036149;28;20207;-80
2022/05/04 02:18:06;;;;;;;13.93;6.10;;;;;;;10.30;64.57;101894.38;5052158;28;20046;-80
2022/05/04 02:20:32;;;;;;;15.10;6.10;;;;;;;10.28;64.75;101891.69;5037322;28;20029;-80
2022/05/04 02:22:57;;;;;;;16.95;5.85;;;;;;;10.29;64.99;101893.47;5053465;28;20033;-80
2022/05/04 02:25:22;;;;;;;21.75;6.13;;;;;;;10.33;64.57;101887.59;5052665;28;20265;-79
2022/05/04 02:27:48;;;;;;;15.95;6.05;;;;;;;10.34;64.32;101889.41;5038975;28;20089;-79
2022/05/04 02:30:13;;;;;;;17.52;6.00;;;;;;;10.37;64.27;101888.63;5028686;28;20335;-80
2022/05/04 02:32:39;;;;;;;14.85;5.82;;;;;;;10.37;64.12;101886.91;5055305;28;20025;-80
2022/05/04 02:37:54;;;;;;;17.30;6.03;;;;;;;10.36;64.12;101884.25;5032197;28;20089;-79
2022/05/04 02:40:20;;;;;;;14.52;5.60;;;;;;;10.33;63.81;101886.69;5037830;28;20339;-80
2022/05/04 02:42:46;;;;;;;17.15;6.35;;;;;;;10.36;63.57;101890.34;5037451;28;20029;-79
2022/05/04 02:45:11;;;;;;;17.17;5.88;;;;;;;10.34;63.87;101889.41;5036723;28;20026;-80
2022/05/04 02:47:38;;;;;;;15.75;5.90;;;;;;;10.35;63.94;101892.88;5038469;28;20064;-79
2022/05/04 02:50:04;;;;;;;13.32;5.38;;;;;;;10.33;63.97;101887.59;5054006;28;20059;-80
2022/05/04 02:52:29;;;;;;;15.73;5.85;;;;;;;10.31;63.99;101888.34;5043192;28;20049;-80
2022/05/04 02:54:55;;;;;;;15.00;6.18;;;;;;;10.27;64.40;101882.13;5042188;28;20037;-80
2022/05/04 02:57:20;;;;;;;16.95;5.80;;;;;;;10.27;64.28;101880.41;5042534;28;20105;-80
2022/05/04 02:59:45;;;;;;;15.18;5.65;;;;;;;10.26;64.61;101881.22;5041952;28;20068;-80
2022/05/04 03:02:29;;;;;;;14.63;5.90;;;;;;;10.22;64.34;101874.09;5034931;28;20088;-79
2022/05/04 03:05:04;;;;;;;13.93;5.47;;;;;;;10.18;64.46;101871.31;5032812;28;20026;-79
2022/05/04 03:07:29;;;;;;;15.30;5.53;;;;;;;10.18;63.99;101871.31;5040677;28;20037;-80
2022/05/04 03:09:55;;;;;;;17.15;5.80;;;;;;;10.18;64.49;101872.22;5042801;28;20180;-80
2022/05/04 03:12:21;;;;;;;17.40;6.05;;;;;;;10.14;64.14;101875.50;5040634;28;20036;-80
2022/05/04 03:14:46;;;;;;;15.88;5.55;;;;;;;10.13;64.52;101871.13;5037451;28;20033;-79
2022/05/04 03:17:12;;;;;;;15.15;5.63;;;;;;;10.12;64.29;101866.72;5042066;28;20045;-80
2022/05/04 03:19:37;;;;;;;14.07;5.68;;;;;;;10.11;64.42;101875.38;5039968;28;20033;-80
2022/05/04 03:22:04;;;;;;;15.48;5.60;;;;;;;10.07;64.59;101861.34;5038186;28;20037;-79
2022/05/04 03:24:29;;;;;;;16.02;6.15;;;;;;;10.05;64.53;101869.91;5040964;28;20042;-79
2022/05/04 03:26:54;;;;;;;17.38;5.80;;;;;;;10.06;64.36;101871.69;5036840;28;20056;-79
2022/05/04 03:29:19;;;;;;;13.60;4.93;;;;;;;10.02;64.23;101865.47;5044375;28;20041;-79
2022/05/04 03:31:45;;;;;;;13.35;5.32;;;;;;;10.01;64.58;101868.03;5043812;28;20157;-79
2022/05/04 03:34:10;;;;;;;13.95;6.10;;;;;;;10.00;64.74;101871.44;5059865;28;20025;-80
2022/05/04 03:36:35;;;;;;;13.40;5.50;;;;;;;10.00;64.87;101864.50;5042591;28;20295;-79
2022/05/04 03:39:02;;;;;;;14.65;5.68;;;;;;;9.98;64.75;101865.25;5037108;28;20265;-79
2022/05/04 03:41:27;;;;;;;16.55;6.20;;;;;;;9.95;64.78;101867.72;5039934;28;20045;-79
2022/05/04 03:43:53;;;;;;;13.45;5.15;;;;;;;9.95;64.76;101862.53;5039904;28;20107;-80
2022/05/04 03:46:23;;;;;;;16.67;6.03;;;;;;;9.93;64.53;101867.66;5039291;28;20029;-79
2022/05/04 03:48:53;;;;;;;13.75;6.28;;;;;;;9.89;64.86;101865.75;5039369;28;20116;-79
2022/05/04 03:51:20;;;;;;;13.93;5.72;;;;;;;9.89;64.70;101863.16;5040675;28;20045;-79
2022/05/04 03:53:46;;;;;;;14.63;5.43;;;;;;;9.86;64.97;101863.03;5057313;28;20026;-79
2022/05/04 03:56:11;;;;;;;16.77;6.10;;;;;;;9.86;64.76;101863.03;5035099;28;20312;-79
2022/05/04 03:58:37;;;;;;;14.45;5.50;;;;;;;9.83;64.77;101868.09;5028086;28;20048;-80
2022/05/04 04:01:03;;;;;;;16.10;5.60;;;;;;;9.79;64.96;101866.19;5033335;28;20145;-80
2022/05/04 04:03:28;;;;;;;16.13;5.90;;;;;;;9.75;64.74;101863.44;5037621;28;20042;-80
2022/05/04 04:05:54;;;;;;;14.70;5.53;;;;;;;9.71;65.13;101863.25;5038607;28;20100;-80
2022/05/04 04:08:20;;;;;;;15.98;5.72;;;;;;;9.64;65.30;101867.28;5057445;28;20180;-80
2022/05/04 04:10:46;;;;;;;15.13;5.28;;;;;;;9.59;65.31;101871.44;5035697;28;20026;-80
2022/05/04 04:13:11;;;;;;;16.83;5.70;;;;;;;9.57;65.44;101866.16;5035066;28;20033;-80
2022/05/04 04:15:36;;;;;;;13.43;5.90;;;;;;;9.57;65.48;101865.25;5032033;28;20137;-79
2022/05/04 04:18:01;;;;;;;15.85;5.72;;;;;;;9.53;65.49;101866.84;5039126;28;20265;-79
2022/05/04 04:23:11;;;;;;;16.85;5.63;;;;;;;9.49;65.53;101862.31;5033781;28;20048;-80
2022/05/04 04:25:37;;;;;;;13.82;5.70;;;;;;;9.46;65.80;101861.28;5041398;28;20259;-79
2022/05/04 04:28:03;;;;;;;17.08;6.00;;;;;;;9.38;65.94;101863.53;5055080;28;20270;-79
2022/05/04 04:30:28;;;;;;;13.98;5.70;;;;;;;9.34;66.09;101864.22;5039208;28;20079;-79
2022/05/04 04:32:53;;;;;;;15.18;5.93;;;;;;;9.30;66.10;101863.22;5037488;28;20277;-80
2022/05/04 04:35:19;;;;;;;17.73;6.38;;;;;;;9.30;66.50;101877.91;5041687;28;20071;-79
2022/05/04 04:37:44;;;;;;;13.48;5.80;;;;;;;9.27;66.42;101875.16;5037041;28;20025;-79
2022/05/04 04:40:10;;;;;;;16.23;6.05;;;;;;;9.21;66.28;101874.09;5039814;28;20048;-79
2022/05/04 04:42:35;;;;;;;14.80;5.40;;;;;;;9.16;66.51;101875.56;5039200;28;20105;-80
2022/05/04 04:45:00;;;;;;;14.10;5.68;;;;;;;9.14;67.12;101874.63;5036572;28;20021;-79
2022/05/04 04:47:25;;;;;;;18.52;5.72;;;;;;;9.12;66.76;101878.84;5040769;28;20188;-80
2022/05/04 04:49:54;;;;;;;18.15;6.40;;;;;;;9.11;66.98;101873.56;5042116;28;20040;-79
2022/05/04 04:52:19;;;;;;;17.42;5.75;;;;;;;9.07;66.91;101875.16;5041830;28;20040;-80
2022/05/04 04:54:45;;;;;;;13.82;5.18;;;;;;;9.08;67.35;101873.44;5041991;28;20030;-80
2022/05/04 04:57:10;;;;;;;17.95;5.57;;;;;;;9.10;67.26;101870.09;5039485;28;20021;-79
2022/05/04 04:59:35;;;;;;;16.92;6.15;;;;;;;9.12;67.12;101870.16;5037548;28;20079;-80
2022/05/04 05:02:00;;;;;;;17.02;6.47;;;;;;;9.12;67.31;101865.84;5033364;28;20037;-79
2022/05/04 05:04:26;;;;;;;16.50;5.78;;;;;;;9.16;67.29;101872.97;5036752;28;20029;-79
2022/05/04 05:06:51;;;;;;;18.13;6.28;;;;;;;9.15;66.93;101867.69;5035110;28;20017;-80
2022/05/04 05:09:17;;;;;;;17.30;5.60;;;;;;;9.17;66.72;101872.16;5038194;28;20187;-79
2022/05/04 05:11:42;;;;;;;27.88;6.20;;;;;;;9.15;66.71;101876.41;5036326;28;20045;-79
2022/05/04 05:16:51;;;;;;;14.80;5.88;;;;;;;9.12;66.94;101875.38;5034079;28;20105;-79
2022/05/04 05:19:16;;;;;;;17.48;5.80;;;;;;;9.10;66.62;101877.00;5042617;28;20018;-79
2022/05/04 05:21:42;;;;;;;15.32;5.68;;;;;;;9.09;66.39;101883.91;5034769;28;20092;-79
2022/05/04 05:24:07;;;;;;;17.40;5.68;;;;;;;9.13;66.95;101879.75;5041561;28;20029;-79
2022/05/04 05:26:32;;;;;;;14.40;5.85;;;;;;;9.16;67.09;101893.78;5036566;28;20045;-79
2022/05/04 05:28:58;;;;;;;21.17;6.43;;;;;;;9.20;66.96;101887.91;5037299;28;21003;-79
2022/05/04 05:31:23;;;;;;;17.10;6.00;;;;;;;9.21;66.39;101884.47;5041816;28;20033;-79
2022/05/04 05:33:48;;;;;;;20.02;7.03;;;;;;;9.22;66.35;101878.47;5040271;28;20026;-79
2022/05/04 05:36:14;;;;;;;14.38;5.80;;;;;;;9.21;67.09;101881.88;5033280;28;20029;-79
2022/05/04 05:38:39;;;;;;;18.98;6.32;;;;;;;9.23;66.68;101882.81;5042402;28;20021;-79
2022/05/04 05:41:04;;;;;;;18.75;6.68;;;;;;;9.25;66.87;101882.91;5041601;28;20215;-79
2022/05/04 05:43:29;;;;;;;17.15;6.03;;;;;;;9.25;66.69;101876.81;5041516;28;20064;-79
2022/05/04 05:45:55;;;;;;;16.17;5.72;;;;;;;9.29;66.79;101877.03;5042405;28;20044;-79
2022/05/04 05:48:20;;;;;;;15.98;5.90;;;;;;;9.32;66.67;101882.34;5041031;28;20033;-80
2022/05/04 05:50:47;;;;;;;15.82;6.05;;;;;;;9.32;66.62;101884.97;5040063;28;20630;-79
2022/05/04 05:53:16;;;;;;;24.45;6.82;;;;;;;9.35;66.36;101887.69;5032736;28;20272;-79
2022/05/04 05:55:42;;;;;;;18.67;5.90;;;;;;;9.42;66.31;101885.41;5033385;28;20060;-79
2022/05/04 05:58:09;;;;;;;15.70;6.32;;;;;;;9.43;66.48;101893.25;5038656;28;20171;-79
2022/05/04 06:00:35;;;;;;;17.33;6.32;;;;;;;9.48;66.69;101889.16;5036817;28;20032;-79
2022/05/04 06:03:00;;;;;;;23.45;6.80;;;;;;;9.51;66.61;101888.41;5034741;28;20041;-79
2022/05/04 06:05:25;;;;;;;16.98;6.93;;;;;;;9.53;66.67;101887.66;5035458;28;20036;-79
2022/05/04 06:07:51;;;;;;;20.23;6.65;;;;;;;9.67;66.67;101887.38;5033138;28;20050;-79
2022/05/04 06:10:16;;;;;;;16.30;6.38;;;;;;;9.96;65.45;101896.44;5034335;28;20190;-79
2022/05/04 06:12:41;;;;;;;17.75;6.47;;;;;;;10.46;64.21;101888.09;5036237;28;20017;-79
2022/05/04 06:15:08;;;;;;;16.60;6.68;;;;;;;10.93;62.94;101892.63;5035143;28;20018;-79
2022/05/04 06:17:34;;;;;;;18.88;6.70;;;;;;;11.36;61.03;101897.72;5035822;28;20033;-80
2022/05/04 06:19:59;;;;;;;19.27;6.90;;;;;;;11.65;61.22;101896.16;5038785;28;20033;-79
2022/05/04 06:22:24;;;;;;;17.38;6.90;;;;;;;11.94;59.49;101905.06;5031689;28;20025;-79
2022/05/04 06:24:49;;;;;;;21.05;6.97;;;;;;;12.05;58.52;101905.44;5039097;28;20251;-79
2022/05/04 06:27:15;;;;;;;20.20;6.65;;;;;;;12.07;57.80;101900.28;5045184;28;20184;-79
2022/05/04 06:35:10;;;;;;;14.45;6.38;;;;;;;12.00;57.78;101907.00;5039431;28;20040;-79
2022/05/04 06:37:35;;;;;;;17.63;7.25;;;;;;;12.04;58.18;101905.41;5052528;28;20052;-79
2022/05/04 06:40:00;;;;;;;19.20;6.82;;;;;;;12.03;59.50;101903.63;5031423;28;20351;-79
2022/05/04 06:42:26;;;;;;;16.25;6.80;;;;;;;11.96;58.00;101902.50;5036255;28;20073;-79
2022/05/04 06:44:51;;;;;;;16.83;6.63;;;;;;;11.99;57.53;101913.97;5040823;28;20256;-80
2022/05/04 06:47:16;;;;;;;21.58;7.25;;;;;;;11.92;58.07;101909.31;5040129;28;20313;-81
2022/05/04 06:49:43;;;;;;;17.30;6.85;;;;;;;11.92;58.43;101913.63;5040412;28;20044;-81
2022/05/04 06:52:08;;;;;;;21.20;6.47;;;;;;;11.89;58.26;101913.53;5040483;28;20041;-81
2022/05/04 06:54:34;;;;;;;15.75;6.22;;;;;;;11.81;58.09;101914.13;5039879;28;20039;-81
2022/05/04 06:57:00;;;;;;;18.80;6.93;;;;;;;11.83;58.33;101916.81;5042392;28;20045;-81
2022/05/04 06:59:26;;;;;;;19.30;6.53;;;;;;;11.85;59.54;101904.72;5041404;28;20021;-81
2022/05/04 07:01:52;;;;;;;19.30;7.22;;;;;;;11.86;58.41;101910.81;5042542;28;20018;-81
2022/05/04 07:04:17;;;;;;;16.70;6.82;;;;;;;11.88;59.05;101904.81;5042283;28;20104;-80
2022/05/04 07:06:42;;;;;;;21.15;6.55;;;;;;;11.90;58.90;101904.88;5038999;28;20052;-81
2022/05/04 07:09:08;;;;;;;16.23;6.20;;;;;;;11.92;58.13;101904.09;5052891;28;20017;-81
2022/05/04 07:11:33;;;;;;;18.73;6.97;;;;;;;11.97;58.30;101910.38;5042123;28;20342;-81
2022/05/04 07:13:58;;;;;;;15.98;6.18;;;;;;;12.03;58.50;101914.06;5042258;28;20160;-81
2022/05/04 07:16:24;;;;;;;19.45;6.45;;;;;;;12.05;56.30;101901.94;5043628;28;20052;-80
2022/05/04 07:18:49;;;;;;;15.88;6.15;;;;;;;12.10;57.50;101909.09;5044088;28;20034;-80
2022/05/04 07:21:14;;;;;;;19.38;6.20;;;;;;;12.14;57.12;101904.88;5044052;28;20287;-81
2022/05/04 07:23:40;;;;;;;16.83;6.70;;;;;;;12.19;57.79;101911.13;5037477;28;20029;-81
2022/05/04 07:26:05;;;;;;;18.67;6.03;;;;;;;12.21;55.92;101896.41;5034113;28;20238;-81
2022/05/04 07:28:31;;;;;;;22.48;6.90;;;;;;;12.22;57.92;101900.78;5039367;28;21059;-81
2022/05/04 07:30:56;;;;;;;20.55;7.13;;;;;;;12.26;57.86;101900.03;5044027;28;20071;-81
2022/05/04 07:33:22;;;;;;;18.17;6.80;;;;;;;12.29;57.06;101892.31;5043401;28;20017;-80
2022/05/04 07:35:47;;;;;;;19.40;7.18;;;;;;;12.32;56.64;101895.00;5040770;28;20116;-81
2022/05/04 07:38:12;;;;;;;20.05;6.70;;;;;;;12.31;55.74;101895.88;5044289;28;20021;-81
2022/05/04 07:43:21;;;;;;;22.00;7.30;;;;;;;12.34;55.37;101892.47;5044000;28;20079;-82
2022/05/04 07:45:47;;;;;;;20.88;7.65;;;;;;;12.37;56.12;101900.41;5042492;28;20033;-81
2022/05/04 07:48:12;;;;;;;18.92;7.43;;;;;;;12.43;57.08;101899.75;5036021;28;20037;-81
2022/05/04 07:50:37;;;;;;;18.17;6.97;;;;;;;12.45;55.93;101903.28;5044584;28;20092;-81
2022/05/04 07:53:03;;;;;;;21.25;7.03;;;;;;;12.50;54.94;101905.22;5043501;28;20335;-81
2022/05/04 07:55:30;;;;;;;19.33;7.47;;;;;;;12.50;54.57;101902.59;5043410;28;20040;-81
2022/05/04 07:57:56;;;;;;;17.52;7.18;;;;;;;12.53;54.77;101904.44;5043892;28;20342;-81
2022/05/04 08:05:49;;;;;;;21.15;7.75;;;;;;;12.60;55.29;101908.09;5043147;28;20044;-80
2022/05/04 08:08:14;;;;;;;19.25;7.10;;;;;;;12.65;55.41;101911.78;5037372;28;20025;-80
2022/05/04 08:10:40;;;;;;;22.05;8.70;;;;;;;12.69;55.52;101904.06;5040922;28;20200;-81
2022/05/04 08:13:06;;;;;;;19.35;7.35;;;;;;;12.77;56.66;101906.91;5041266;28;20295;-76
2022/05/04 08:15:31;;;;;;;22.58;8.10;;;;;;;12.86;57.66;101906.31;5042434;28;20037;-77
2022/05/04 08:17:58;;;;;;;21.15;8.52;;;;;;;12.91;54.79;101901.25;5042143;28;20058;-76
2022/05/04 08:20:24;;;;;;;19.27;8.30;;;;;;;12.93;54.19;101903.06;5036875;28;20033;-76
2022/05/04 08:22:50;;;;;;;19.90;9.00;;;;;;;13.04;57.80;101906.91;5042607;28;20033;-76
2022/05/04 08:25:17;;;;;;;23.15;9.48;;;;;;;13.10;56.75;101905.31;5043055;28;20028;-76
2022/05/04 08:27:43;;;;;;;18.55;8.73;;;;;;;13.18;57.31;101901.22;5043000;28;20045;-76
2022/05/04 08:30:08;;;;;;;22.48;9.13;;;;;;;13.27;57.06;101913.69;5038308;28;20043;-76
2022/05/04 08:32:34;;;;;;;22.10;8.85;;;;;;;13.34;58.10;101911.31;5049506;28;20048;-76
2022/05/04 08:34:59;;;;;;;23.63;8.85;;;;;;;13.41;56.65;101912.38;5039939;28;20033;-76
2022/05/04 08:37:28;;;;;;;21.23;9.85;;;;;;;13.42;54.46;101910.66;5040773;28;20276;-76
2022/05/04 08:39:55;;;;;;;25.10;9.10;;;;;;;13.44;55.62;101902.00;5041504;28;20357;-76
2022/05/04 08:42:21;;;;;;;19.90;8.63;;;;;;;13.48;55.64;101898.59;5038032;28;20033;-76
2022/05/04 08:44:50;;;;;;;25.38;10.23;;;;;;;13.52;55.52;101905.72;5056050;28;20025;-76
2022/05/04 08:47:17;;;;;;;20.40;9.25;;;;;;;13.59;54.09;101905.91;5035963;28;20051;-76
2022/05/04 08:49:44;;;;;;;22.45;9.50;;;;;;;13.63;54.28;101897.28;5039444;28;20033;-76
2022/05/04 08:52:11;;;;;;;19.25;9.15;;;;;;;13.71;54.91;101901.88;5036323;28;20026;-76
2022/05/04 08:54:36;;;;;;;22.83;9.65;;;;;;;13.76;54.45;101904.66;5041591;28;20033;-76
2022/05/04 08:57:03;;;;;;;26.05;9.73;;;;;;;13.80;54.62;101897.75;5041713;28;20176;-77
2022/05/04 08:59:29;;;;;;;25.25;9.73;;;;;;;13.81;54.09;101896.91;5040505;28;20037;-76
2022/05/04 09:01:54;;;;;;;22.58;10.18;;;;;;;13.86;55.42;101895.28;5038108;28;20021;-76
2022/05/04 09:04:19;;;;;;;27.02;10.30;;;;;;;13.91;53.75;101896.31;5040687;28;20037;-76
2022/05/04 09:06:45;;;;;;;26.73;10.20;;;;;;;13.97;53.16;101898.22;5035320;28;20033;-76
2022/05/04 09:09:10;;;;;;;21.73;9.93;;;;;;;14.00;54.86;101895.66;5035464;28;20029;-76
2022/05/04 09:11:43;;;;;;;25.77;10.18;;;;;;;14.10;56.25;101900.28;5040213;28;20079;-76
2022/05/04 09:14:20;;;;;;;26.52;10.57;;;;;;;14.23;56.20;101894.50;5037671;28;20017;-76
2022/05/04 09:16:46;;;;;;;23.00;10.55;;;;;;;14.32;53.89;101900.84;5038899;28;20025;-76
2022/05/04 09:19:13;;;;;;;22.10;10.43;;;;;;;14.27;51.97;101883.25;5036530;28;20037;-76
2022/05/04 09:21:40;;;;;;;23.92;10.25;;;;;;;14.26;50.66;101891.09;5038775;28;20292;-76
2022/05/04 09:24:05;;;;;;;25.55;10.43;;;;;;;14.27;50.81;101888.50;5037907;28;20029;-76
2022/05/04 09:26:31;;;;;;;22.83;10.25;;;;;;;14.24;50.53;101880.56;5031739;28;20064;-76
2022/05/04 09:28:59;;;;;;;25.70;10.90;;;;;;;14.27;51.65;101877.16;5038444;28;20096;-76
2022/05/04 09:31:30;;;;;;;25.45;10.70;;;;;;;14.33;53.02;101877.28;5034787;28;20085;-76
2022/05/04 09:34:01;;;;;;;25.02;11.25;;;;;;;14.42;53.30;101877.53;5040427;28;20215;-76
2022/05/04 09:45:11;;;;;;;29.38;11.35;;;;;;;14.62;50.44;101877.13;5029170;28;20031;-76
2022/05/04 09:47:44;;;;;;;21.83;10.27;;;;;;;14.68;53.21;101879.91;5039461;28;20319;-80
2022/05/04 09:50:10;;;;;;;26.65;11.25;;;;;;;14.75;52.72;101873.06;5047800;28;20040;-78
2022/05/04 09:52:41;;;;;;;27.58;10.88;;;;;;;14.79;53.22;101872.28;5033419;28;20033;-78
2022/05/04 09:55:14;;;;;;;25.00;9.90;;;;;;;14.84;51.84;101875.88;5037454;28;20030;-78
2022/05/04 09:57:42;;;;;;;27.77;10.85;;;;;;;14.91;53.55;101876.91;5032309;28;20307;-78
2022/05/04 10:00:08;;;;;;;28.50;12.57;;;;;;;14.93;51.79;101872.59;5039978;28;20030;-77
2022/05/04 10:02:36;;;;;;;27.92;11.13;;;;;;;14.93;51.62;101869.97;5046303;28;20066;-77
2022/05/04 10:05:02;;;;;;;24.65;10.50;;;;;;;14.99;52.31;101869.22;5040313;28;20100;-77
2022/05/04 10:07:28;;;;;;;28.00;11.57;;;;;;;15.04;49.50;101867.59;5046085;28;20025;-77
2022/05/04 10:09:53;;;;;;;29.02;11.13;;;;;;;15.15;51.11;101876.59;5045600;28;20037;-77
2022/05/04 10:12:20;;;;;;;27.75;11.23;;;;;;;15.26;52.50;101868.91;5061447;28;20089;-78
2022/05/04 10:14:45;;;;;;;31.50;11.38;;;;;;;15.27;49.08;101862.81;5061041;28;20170;-76
2022/05/04 10:17:20;;;;;;;27.42;10.75;;;;;;;15.33;50.90;101862.94;5044878;28;20328;-75
2022/05/04 10:20:11;;;;;;;22.73;10.32;;;;;;;15.41;52.64;101863.06;5060147;28;20045;-75
2022/05/04 10:22:41;;;;;;;28.52;11.75;;;;;;;15.47;53.04;101863.22;5045284;28;20060;-75
2022/05/04 10:25:07;;;;;;;27.08;11.05;;;;;;;15.55;52.47;101860.75;5046027;28;20032;-75
2022/05/04 10:27:39;;;;;;;27.88;12.02;;;;;;;15.62;52.18;101862.63;5045149;28;20036;-77
2022/05/04 10:32:55;;;;;;;32.58;12.52;;;;;;;15.71;48.73;101865.41;5044738;28;20036;-77
2022/05/04 10:35:41;;;;;;;25.40;11.48;;;;;;;15.73;51.11;101863.72;5045073;28;20038;-76
2022/05/04 10:38:13;;;;;;;26.17;11.07;;;;;;;15.82;52.53;101861.28;5038040;28;20220;-76
2022/05/04 10:40:55;;;;;;;27.48;11.85;;;;;;;15.77;47.77;101859.41;5043680;28;20029;-77
2022/05/04 10:43:41;;;;;;;30.42;12.13;;;;;;;15.76;49.54;101849.75;5034744;28;20037;-76
2022/05/04 10:46:09;;;;;;;26.33;11.00;;;;;;;15.76;49.57;101850.63;5044580;28;20199;-76
2022/05/04 10:48:35;;;;;;;28.92;11.63;;;;;;;15.80;49.25;101856.84;5051185;28;20044;-77
2022/05/04 10:51:18;;;;;;;27.40;10.73;;;;;;;15.90;51.46;101853.56;5042504;28;20107;-77
2022/05/04 10:53:46;;;;;;;24.60;11.18;;;;;;;15.98;48.86;101851.06;5053509;28;20024;-77
2022/05/04 10:56:21;;;;;;;26.98;11.18;;;;;;;16.09;48.83;101848.59;5044370;28;20030;-76
2022/05/04 10:58:53;;;;;;;24.15;10.77;;;;;;;16.22;50.98;101847.97;5044980;28;20056;-76
2022/05/04 11:01:24;;;;;;;26.35;10.52;;;;;;;16.31;49.91;101839.34;5042754;28;20049;-76
2022/05/04 11:04:02;;;;;;;27.45;10.50;;;;;;;16.37;49.54;101843.81;5044664;28;20021;-77
2022/05/04 11:06:30;;;;;;;28.30;11.63;;;;;;;16.43;50.04;101843.91;5044201;28;20053;-76
2022/05/04 11:08:59;;;;;;;29.85;12.35;;;;;;;16.41;49.26;101842.97;5031598;28;20053;-76
2022/05/04 11:11:26;;;;;;;31.23;12.40;;;;;;;16.37;46.33;101834.16;5042784;28;20091;-76
2022/05/04 11:13:52;;;;;;;31.40;13.02;;;;;;;16.35;45.16;101835.88;5044307;28;20023;-76
2022/05/04 11:16:20;;;;;;;28.95;12.27;;;;;;;16.39;48.58;101835.06;5032193;28;20232;-77
2022/05/04 11:18:45;;;;;;;32.45;12.88;;;;;;;16.39;48.00;101832.44;5034201;28;20201;-77
2022/05/04 11:21:15;;;;;;;28.40;12.50;;;;;;;16.46;49.35;101829.03;5040841;28;20349;-77
2022/05/04 11:23:46;;;;;;;30.83;12.75;;;;;;;16.42;47.30;101824.59;5039707;28;20080;-77
2022/05/04 11:26:20;;;;;;;28.77;11.77;;;;;;;16.55;50.71;101830.91;5044436;28;20028;-76
2022/05/04 11:28:46;;;;;;;32.22;11.93;;;;;;;16.58;45.88;101827.44;5041819;28;20054;-77
2022/05/04 11:31:11;;;;;;;28.60;12.00;;;;;;;16.64;48.58;101830.16;5039856;28;20288;-77
2022/05/04 11:33:37;;;;;;;25.33;11.45;;;;;;;16.73;49.31;101824.16;5033252;28;20268;-76
2022/05/04 11:36:02;;;;;;;34.38;13.18;;;;;;;16.73;47.89;101827.69;5043164;28;20060;-76
2022/05/04 11:38:27;;;;;;;33.88;12.45;;;;;;;16.82;49.57;101826.91;5043786;28;20037;-76
2022/05/04 11:40:54;;;;;;;28.67;12.30;;;;;;;16.86;48.69;101823.47;5036196;28;20067;-75
2022/05/04 11:43:50;;;;;;;29.48;12.02;;;;;;;16.90;48.33;101820.06;5039628;28;20040;-76
2022/05/04 11:46:15;;;;;;;33.33;12.43;;;;;;;16.90;48.08;101819.16;5043961;28;20057;-76
2022/05/04 11:48:47;;;;;;;26.73;12.10;;;;;;;16.97;48.84;101818.38;5042479;28;20036;-75
2022/05/04 11:51:16;;;;;;;29.58;12.18;;;;;;;16.99;46.16;101811.38;5043705;28;20284;-76
2022/05/04 11:53:41;;;;;;;;;;;;;;;17.04;48.58;101805.28;5043710;28;20324;-76